createdAt,value
2018-05-24T00:01:22.028Z,102089.69
2018-05-24T00:03:49.601Z,102088.63
2018-05-24T00:06:17.205Z,102086.76
2018-05-24T00:08:44.813Z,102078.58
2018-05-24T00:11:12.427Z,102076.38
2018-05-24T00:13:40.013Z,102081.73
2018-05-24T00:16:07.673Z,102076.23
2018-05-24T00:18:35.258Z,102081.43
2018-05-24T00:21:02.874Z,102089.20
2018-05-24T00:23:30.485Z,102095.25
2018-05-24T00:25:58.058Z,102101.93
2018-05-24T00:28:25.672Z,102101.50
2018-05-24T00:30:53.247Z,102102.64
2018-05-24T00:33:20.862Z,102100.63
2018-05-24T00:35:48.443Z,102104.92
2018-05-24T00:38:16.064Z,102103.13
2018-05-24T00:40:43.635Z,102099.62
2018-05-24T00:43:11.813Z,102105.50
2018-05-24T00:45:39.413Z,102104.27
2018-05-24T00:48:06.992Z,102103.89
2018-05-24T00:50:34.601Z,102107.55
2018-05-24T00:53:02.169Z,102109.78
2018-05-24T00:55:46.605Z,102106.98
2018-05-24T00:58:14.186Z,102111.56
2018-05-24T01:00:42.117Z,102105.03
2018-05-24T01:03:09.762Z,102102.74
2018-05-24T01:05:37.333Z,102100.58
2018-05-24T01:08:04.951Z,102099.43
2018-05-24T01:10:32.528Z,102100.42
2018-05-24T01:13:00.140Z,102100.31
2018-05-24T01:15:27.749Z,102101.40
2018-05-24T01:17:55.330Z,102111.70
2018-05-24T01:20:22.945Z,102107.42
2018-05-24T01:22:50.517Z,102107.28
2018-05-24T01:25:18.130Z,102105.57
2018-05-24T01:27:45.708Z,102101.51
2018-05-24T01:30:13.321Z,102104.77
2018-05-24T01:32:40.949Z,102103.33
2018-05-24T01:35:08.525Z,102103.16
2018-05-24T01:37:47.749Z,102103.88
2018-05-24T01:40:15.372Z,102100.11
2018-05-24T01:42:42.953Z,102102.03
2018-05-24T01:45:10.553Z,102106.77
2018-05-24T01:47:38.453Z,102099.76
2018-05-24T01:50:06.038Z,102094.79
2018-05-24T01:52:33.608Z,102103.06
2018-05-24T01:55:01.210Z,102102.02
2018-05-24T01:57:28.810Z,102100.39
2018-05-24T01:59:56.389Z,102104.36
2018-05-24T02:02:24.083Z,102101.69
2018-05-24T02:04:51.705Z,102103.75
2018-05-24T02:07:19.320Z,102097.81
2018-05-24T02:09:46.907Z,102100.03
2018-05-24T02:12:14.485Z,102093.11
2018-05-24T02:14:42.101Z,102093.42
2018-05-24T02:17:09.673Z,102097.54
2018-05-24T02:19:37.289Z,102089.88
2018-05-24T02:22:04.865Z,102091.37
2018-05-24T02:24:32.486Z,102089.95
2018-05-24T02:27:00.101Z,102086.68
2018-05-24T02:29:27.725Z,102085.94
2018-05-24T02:31:55.344Z,102081.55
2018-05-24T02:34:22.957Z,102087.14
2018-05-24T02:36:50.539Z,102082.78
2018-05-24T02:39:18.161Z,102083.73
2018-05-24T02:41:45.797Z,102078.68
2018-05-24T02:44:13.378Z,102081.36
2018-05-24T02:46:41.002Z,102077.16
2018-05-24T02:49:08.577Z,102076.66
2018-05-24T02:51:36.194Z,102078.34
2018-05-24T02:54:03.774Z,102074.66
2018-05-24T02:56:31.397Z,102080.45
2018-05-24T02:58:58.975Z,102074.41
2018-05-24T03:01:26.561Z,102076.09
2018-05-24T03:03:54.175Z,102073.34
2018-05-24T03:06:21.764Z,102079.09
2018-05-24T03:08:49.383Z,102072.84
2018-05-24T03:11:16.973Z,102067.87
2018-05-24T03:13:44.595Z,102072.23
2018-05-24T03:16:12.188Z,102055.17
2018-05-24T03:18:39.757Z,102059.55
2018-05-24T03:21:07.377Z,102058.11
2018-05-24T03:23:34.964Z,102057.20
2018-05-24T03:26:02.584Z,102058.11
2018-05-24T03:28:30.180Z,102059.93
2018-05-24T03:30:57.805Z,102053.55
2018-05-24T03:33:25.400Z,102056.48
2018-05-24T03:35:53.038Z,102057.06
2018-05-24T03:38:20.662Z,102058.55
2018-05-24T03:40:48.248Z,102050.52
2018-05-24T03:43:15.860Z,102043.06
2018-05-24T03:45:43.477Z,102049.33
2018-05-24T03:48:11.096Z,102046.25
2018-05-24T03:50:38.678Z,102048.77
2018-05-24T03:53:06.285Z,102049.91
2018-05-24T03:55:33.892Z,102049.00
2018-05-24T03:58:01.507Z,102043.81
2018-05-24T04:00:40.792Z,102055.95
2018-05-24T04:03:20.093Z,102054.87
2018-05-24T04:05:47.764Z,102048.45
2018-05-24T04:08:16.212Z,102050.04
2018-05-24T04:10:43.892Z,102061.64
2018-05-24T04:13:11.449Z,102057.56
2018-05-24T04:15:39.076Z,102064.50
2018-05-24T04:18:06.663Z,102064.11
2018-05-24T04:20:34.277Z,102063.41
2018-05-24T04:23:01.861Z,102065.25
2018-05-24T04:25:29.478Z,102067.14
2018-05-24T04:27:57.064Z,102067.39
2018-05-24T04:30:24.685Z,102064.66
2018-05-24T04:32:52.383Z,102062.46
2018-05-24T04:35:19.908Z,102063.53
2018-05-24T04:37:47.531Z,102063.35
2018-05-24T04:40:15.121Z,102070.54
2018-05-24T04:42:42.747Z,102069.73
2018-05-24T04:45:10.515Z,102066.52
2018-05-24T04:47:38.279Z,102072.48
2018-05-24T04:50:05.894Z,102076.60
2018-05-24T04:52:33.467Z,102071.23
2018-05-24T04:55:01.157Z,102078.05
2018-05-24T04:57:36.137Z,102077.35
2018-05-24T05:00:08.398Z,102071.70
2018-05-24T05:02:36.260Z,102075.03
2018-05-24T05:05:03.894Z,102083.36
2018-05-24T05:07:31.486Z,102073.17
2018-05-24T05:09:59.113Z,102072.94
2018-05-24T05:12:26.693Z,102068.73
2018-05-24T05:14:54.291Z,102079.03
2018-05-24T05:17:21.990Z,102071.78
2018-05-24T05:19:49.577Z,102074.81
2018-05-24T05:22:17.203Z,102074.16
2018-05-24T05:24:44.778Z,102072.73
2018-05-24T05:27:12.425Z,102071.25
2018-05-24T05:29:40.002Z,102069.56
2018-05-24T05:32:07.618Z,102073.82
2018-05-24T05:34:35.241Z,102073.48
2018-05-24T05:37:02.835Z,102078.95
2018-05-24T05:39:30.476Z,102080.39
2018-05-24T05:41:58.112Z,102079.72
2018-05-24T05:44:25.700Z,102079.30
2018-05-24T05:46:53.317Z,102082.33
2018-05-24T05:49:20.903Z,102082.47
2018-05-24T05:51:48.524Z,102076.59
2018-05-24T05:54:16.118Z,102075.74
2018-05-24T05:56:43.745Z,102078.59
2018-05-24T05:59:11.332Z,102078.77
2018-05-24T06:01:38.983Z,102079.83
2018-05-24T06:04:06.582Z,102083.55
2018-05-24T06:06:34.201Z,102087.19
2018-05-24T06:09:01.777Z,102084.63
2018-05-24T06:11:29.389Z,102079.41
2018-05-24T06:13:57.055Z,102084.92
2018-05-24T06:16:24.626Z,102091.33
2018-05-24T06:18:52.238Z,102093.41
2018-05-24T06:21:19.814Z,102083.12
2018-05-24T06:23:47.425Z,102099.34
2018-05-24T06:26:15.013Z,102093.56
2018-05-24T06:28:42.651Z,102098.37
2018-05-24T06:31:10.233Z,102096.77
2018-05-24T06:33:37.952Z,102095.92
2018-05-24T06:36:05.587Z,102097.30
2018-05-24T06:38:33.232Z,102096.43
2018-05-24T06:41:02.232Z,102094.10
2018-05-24T06:43:34.568Z,102093.52
2018-05-24T06:46:02.542Z,102095.13
2018-05-24T06:48:30.153Z,102104.42
2018-05-24T06:51:00.057Z,102102.37
2018-05-24T06:53:27.701Z,102104.91
2018-05-24T06:55:55.275Z,102100.11
2018-05-24T06:58:22.925Z,102095.05
2018-05-24T07:00:50.589Z,102093.39
2018-05-24T07:03:18.162Z,102095.56
2018-05-24T07:05:45.768Z,102093.61
2018-05-24T07:08:13.373Z,102097.05
2018-05-24T07:10:40.989Z,102093.81
2018-05-24T07:13:08.682Z,102090.63
2018-05-24T07:15:37.138Z,102097.95
2018-05-24T07:18:04.755Z,102099.51
2018-05-24T07:20:32.352Z,102103.08
2018-05-24T07:23:00.001Z,102095.14
2018-05-24T07:25:27.657Z,102098.59
2018-05-24T07:27:55.274Z,102097.67
2018-05-24T07:30:22.883Z,102096.05
2018-05-24T07:32:50.562Z,102089.52
2018-05-24T07:35:18.148Z,102089.70
2018-05-24T07:37:45.792Z,102084.13
2018-05-24T07:40:13.384Z,102088.36
2018-05-24T07:42:41.009Z,102088.73
2018-05-24T07:45:08.710Z,102094.30
2018-05-24T07:47:36.317Z,102086.13
2018-05-24T07:50:03.925Z,102084.59
2018-05-24T07:52:31.590Z,102081.34
2018-05-24T07:54:59.618Z,102089.64
2018-05-24T07:57:27.395Z,102082.84
2018-05-24T07:59:54.989Z,102081.66
2018-05-24T08:02:22.591Z,102081.94
2018-05-24T08:04:50.221Z,102075.48
2018-05-24T08:07:17.815Z,102082.19
2018-05-24T08:09:45.443Z,102076.70
2018-05-24T08:12:13.154Z,102069.49
2018-05-24T08:14:40.721Z,102062.09
2018-05-24T08:17:08.372Z,102067.02
2018-05-24T08:19:35.945Z,102070.02
2018-05-24T08:22:03.673Z,102066.69
2018-05-24T08:24:31.288Z,102069.84
2018-05-24T08:26:59.017Z,102071.20
2018-05-24T08:29:26.593Z,102068.52
2018-05-24T08:31:54.237Z,102074.90
2018-05-24T08:34:21.892Z,102068.56
2018-05-24T08:36:49.525Z,102067.44
2018-05-24T08:39:17.189Z,102071.70
2018-05-24T08:41:44.815Z,102064.33
2018-05-24T08:44:12.442Z,102067.80
2018-05-24T08:46:40.021Z,102067.39
2018-05-24T08:49:07.655Z,102058.10
2018-05-24T08:51:35.269Z,102063.05
2018-05-24T08:54:03.279Z,102050.97
2018-05-24T08:56:30.858Z,102062.35
2018-05-24T08:58:58.495Z,102051.77
2018-05-24T09:01:26.098Z,102061.17
2018-05-24T09:03:53.718Z,102051.24
2018-05-24T09:06:21.385Z,102046.45
2018-05-24T09:08:49.024Z,102056.14
2018-05-24T09:11:16.648Z,102053.23
2018-05-24T09:13:44.387Z,102050.64
2018-05-24T09:16:11.976Z,102047.76
2018-05-24T09:18:39.593Z,102048.47
2018-05-24T09:21:07.204Z,102041.63
2018-05-24T09:23:34.819Z,102043.98
2018-05-24T09:26:02.455Z,102042.64
2018-05-24T09:28:30.068Z,102047.53
2018-05-24T09:30:57.706Z,102047.65
2018-05-24T09:33:25.370Z,102042.58
2018-05-24T09:35:53.616Z,102040.07
2018-05-24T09:38:21.255Z,102038.67
2018-05-24T09:40:48.877Z,102042.03
2018-05-24T09:43:16.503Z,102038.69
2018-05-24T09:45:44.138Z,102034.63
2018-05-24T09:48:11.754Z,102026.73
2018-05-24T09:50:39.326Z,102033.79
2018-05-24T09:53:06.990Z,102035.30
2018-05-24T09:55:34.574Z,102025.69
2018-05-24T09:58:02.185Z,102019.98
2018-05-24T10:00:29.811Z,102017.63
2018-05-24T10:02:57.451Z,102014.39
2018-05-24T10:05:32.166Z,102011.95
2018-05-24T10:08:09.258Z,102003.95
2018-05-24T10:35:12.081Z,101978.88
2018-05-24T10:37:40.305Z,101984.71
2018-05-24T10:40:07.932Z,101981.19
2018-05-24T10:42:35.575Z,101973.10
2018-05-24T10:45:03.214Z,101969.92
2018-05-24T10:47:30.829Z,101971.55
2018-05-24T10:49:58.425Z,101973.81
2018-05-24T10:52:27.349Z,101967.14
2018-05-24T10:54:55.073Z,101977.73
2018-05-24T10:57:22.846Z,101974.99
2018-05-24T10:59:50.469Z,101972.82
2018-05-24T11:02:18.051Z,101970.62
2018-05-24T11:04:45.681Z,101964.09
2018-05-24T11:07:13.311Z,101961.98
2018-05-24T11:09:41.970Z,101959.61
2018-05-24T11:12:13.782Z,101957.12
2018-05-24T11:14:42.881Z,101964.48
2018-05-24T11:17:10.497Z,101957.83
2018-05-24T11:19:38.198Z,101954.56
2018-05-24T11:22:05.823Z,101953.92
2018-05-24T11:24:33.621Z,101945.91
2018-05-24T11:27:01.264Z,101945.47
2018-05-24T11:29:37.565Z,101949.84
2018-05-24T11:32:05.185Z,101947.44
2018-05-24T11:34:32.813Z,101948.09
2018-05-24T11:37:00.462Z,101942.76
2018-05-24T11:39:28.164Z,101933.45
2018-05-24T11:41:55.795Z,101938.78
2018-05-24T11:44:23.422Z,101938.87
2018-05-24T11:46:51.035Z,101935.95
2018-05-24T11:49:18.661Z,101930.42
2018-05-24T11:51:47.120Z,101930.93
2018-05-24T11:54:14.809Z,101935.42
2018-05-24T11:56:42.437Z,101928.80
2018-05-24T11:59:10.085Z,101922.02
2018-05-24T12:01:37.721Z,101918.84
2018-05-24T12:04:05.317Z,101919.47
2018-05-24T12:06:32.948Z,101911.80
2018-05-24T12:09:00.554Z,101918.31
2018-05-24T12:11:28.189Z,101906.11
2018-05-24T12:13:55.817Z,101911.39
2018-05-24T12:16:23.415Z,101907.39
2018-05-24T12:18:51.082Z,101903.79
2018-05-24T12:21:18.701Z,101893.83
2018-05-24T12:23:46.355Z,101895.32
2018-05-24T12:26:14.033Z,101892.75
2018-05-24T12:28:41.656Z,101896.72
2018-05-24T12:31:09.462Z,101874.97
2018-05-24T12:33:37.189Z,101889.93
2018-05-24T12:36:04.846Z,101890.30
2018-05-24T12:38:32.576Z,101877.47
2018-05-24T12:41:00.219Z,101881.09
2018-05-24T12:43:27.900Z,101873.70
2018-05-24T12:45:56.088Z,101873.94
2018-05-24T12:48:23.677Z,101872.41
2018-05-24T12:50:51.325Z,101869.97
2018-05-24T12:53:18.923Z,101870.02
2018-05-24T12:55:46.513Z,101865.99
2018-05-24T12:58:14.127Z,101858.64
2018-05-24T13:00:41.812Z,101850.09
2018-05-24T13:03:09.660Z,101848.77
2018-05-24T13:05:37.305Z,101855.15
2018-05-24T13:08:04.929Z,101860.71
2018-05-24T13:10:32.577Z,101859.89
2018-05-24T13:13:00.333Z,101859.27
2018-05-24T13:15:27.981Z,101844.70
2018-05-24T13:17:55.633Z,101839.31
2018-05-24T13:20:23.261Z,101848.01
2018-05-24T13:22:50.852Z,101840.11
2018-05-24T13:25:19.528Z,101837.80
2018-05-24T13:27:47.381Z,101832.58
2018-05-24T13:30:16.053Z,101826.09
2018-05-24T13:32:43.902Z,101835.37
2018-05-24T13:35:11.499Z,101823.65
2018-05-24T13:37:39.143Z,101814.30
2018-05-24T13:40:06.794Z,101815.33
2018-05-24T13:42:34.637Z,101814.83
2018-05-24T13:45:02.564Z,101818.34
2018-05-24T13:47:30.265Z,101822.45
2018-05-24T13:49:57.882Z,101817.19
2018-05-24T13:52:25.505Z,101809.87
2018-05-24T13:54:53.114Z,101809.31
2018-05-24T13:57:32.457Z,101808.12
2018-05-24T14:00:00.037Z,101815.15
2018-05-24T14:02:27.622Z,101801.78
2018-05-24T14:04:55.232Z,101803.05
2018-05-24T14:07:23.457Z,101810.13
2018-05-24T14:09:51.068Z,101803.71
2018-05-24T14:12:18.702Z,101799.52
2018-05-24T14:14:46.318Z,101799.66
2018-05-24T14:17:13.928Z,101801.81
2018-05-24T14:19:41.505Z,101800.25
2018-05-24T14:22:09.134Z,101794.28
2018-05-24T14:24:36.763Z,101794.83
2018-05-24T14:27:04.405Z,101799.34
2018-05-24T14:29:31.995Z,101784.36
2018-05-24T14:31:59.593Z,101782.87
2018-05-24T14:34:27.228Z,101795.95
2018-05-24T14:36:54.809Z,101792.38
2018-05-24T14:39:22.401Z,101787.23
2018-05-24T14:41:50.031Z,101769.25
2018-05-24T14:44:17.672Z,101774.83
2018-05-24T14:46:45.493Z,101773.52
2018-05-24T14:49:13.496Z,101766.63
2018-05-24T14:51:41.165Z,101760.23
2018-05-24T14:54:08.925Z,101762.14
2018-05-24T14:56:36.622Z,101749.42
2018-05-24T14:59:04.224Z,101751.95
2018-05-24T15:01:31.877Z,101752.22
2018-05-24T15:03:59.501Z,101751.48
2018-05-24T15:06:27.115Z,101757.70
2018-05-24T15:08:54.796Z,101750.75
2018-05-24T15:11:23.517Z,101755.36
2018-05-24T15:13:51.983Z,101763.79
2018-05-24T15:16:19.565Z,101755.54
2018-05-24T15:18:47.618Z,101747.71
2018-05-24T15:21:15.501Z,101751.75
2018-05-24T15:23:43.226Z,101747.91
2018-05-24T15:26:10.882Z,101743.00
2018-05-24T15:31:28.769Z,101739.70
2018-05-24T15:33:56.415Z,101740.17
2018-05-24T15:36:24.005Z,101743.58
2018-05-24T15:38:54.627Z,101743.03
2018-05-24T15:41:22.730Z,101741.10
2018-05-24T15:43:50.346Z,101725.57
2018-05-24T15:46:17.957Z,101726.36
2018-05-24T15:48:45.578Z,101725.73
2018-05-24T15:51:13.200Z,101727.94
2018-05-24T15:53:40.837Z,101720.01
2018-05-24T15:56:08.425Z,101724.84
2018-05-24T15:58:36.053Z,101718.94
2018-05-24T16:01:03.714Z,101717.67
2018-05-24T16:03:31.312Z,101720.30
2018-05-24T16:05:59.264Z,101713.34
2018-05-24T16:08:27.254Z,101713.53
2018-05-24T16:10:54.829Z,101718.55
2018-05-24T16:13:22.462Z,101713.76
2018-05-24T16:15:50.076Z,101706.91
2018-05-24T16:18:17.699Z,101707.42
2018-05-24T16:20:45.305Z,101707.21
2018-05-24T16:23:12.914Z,101710.31
2018-05-24T16:25:40.549Z,101709.25
2018-05-24T16:28:08.166Z,101699.98
2018-05-24T16:30:35.940Z,101702.19
2018-05-24T16:33:03.561Z,101711.55
2018-05-24T16:35:31.174Z,101699.73
2018-05-24T16:37:58.757Z,101696.77
2018-05-24T16:40:26.389Z,101696.45
2018-05-24T16:42:59.622Z,101700.69
2018-05-24T16:45:27.260Z,101701.62
2018-05-24T16:47:54.954Z,101703.36
2018-05-24T16:50:22.602Z,101698.66
2018-05-24T16:52:53.072Z,101705.39
2018-05-24T16:55:23.469Z,101707.09
2018-05-24T16:57:51.049Z,101703.80
2018-05-24T17:00:18.637Z,101706.16
2018-05-24T17:02:46.360Z,101699.69
2018-05-24T17:05:14.168Z,101707.54
2018-05-24T17:07:41.829Z,101705.84
2018-05-24T17:10:11.460Z,101711.31
2018-05-24T17:12:39.152Z,101712.57
2018-05-24T17:15:06.881Z,101708.95
2018-05-24T17:17:35.749Z,101714.09
2018-05-24T17:20:05.128Z,101714.75
2018-05-24T17:22:32.741Z,101717.84
2018-05-24T17:25:00.331Z,101716.94
2018-05-24T17:27:27.953Z,101714.76
2018-05-24T17:29:55.581Z,101721.61
2018-05-24T17:32:31.528Z,101717.64
2018-05-24T17:34:59.125Z,101715.05
2018-05-24T17:37:26.778Z,101721.08
2018-05-24T17:39:54.397Z,101712.37
2018-05-24T17:42:21.986Z,101716.52
2018-05-24T17:44:49.635Z,101721.48
2018-05-24T17:47:18.938Z,101719.44
2018-05-24T17:49:46.814Z,101726.45
2018-05-24T17:52:14.420Z,101725.69
2018-05-24T17:54:42.057Z,101717.44
2018-05-24T17:57:09.707Z,101722.77
2018-05-24T17:59:37.304Z,101724.48
2018-05-24T18:02:04.950Z,101721.02
2018-05-24T18:04:32.609Z,101723.61
2018-05-24T18:08:56.149Z,101727.19
2018-05-24T18:11:23.774Z,101729.50
2018-05-24T18:13:51.424Z,101731.18
2018-05-24T18:16:19.143Z,101728.88
2018-05-24T18:18:46.781Z,101730.79
2018-05-24T18:21:14.528Z,101725.72
2018-05-24T18:23:42.173Z,101730.97
2018-05-24T18:26:09.831Z,101735.25
2018-05-24T18:28:37.541Z,101744.30
2018-05-24T18:31:05.230Z,101737.63
2018-05-24T18:33:33.057Z,101732.90
2018-05-24T18:36:00.808Z,101732.05
2018-05-24T18:38:28.593Z,101734.42
2018-05-24T18:40:56.231Z,101746.01
2018-05-24T18:43:23.837Z,101747.23
2018-05-24T18:45:51.445Z,101745.98
2018-05-24T18:48:19.064Z,101750.23
2018-05-24T18:50:46.710Z,101751.19
2018-05-24T18:53:14.337Z,101764.20
2018-05-24T18:55:41.960Z,101760.22
2018-05-24T18:58:09.601Z,101762.88
2018-05-24T19:00:37.234Z,101762.88
2018-05-24T19:03:04.865Z,101769.97
2018-05-24T19:05:32.589Z,101771.47
2018-05-24T19:08:00.216Z,101769.02
2018-05-24T19:10:27.837Z,101770.70
2018-05-24T19:12:55.453Z,101776.94
2018-05-24T19:15:23.062Z,101776.14
2018-05-24T19:17:50.673Z,101784.17
2018-05-24T19:20:18.503Z,101784.65
2018-05-24T19:22:46.113Z,101785.83
2018-05-24T19:25:13.733Z,101782.70
2018-05-24T19:27:41.346Z,101785.39
2018-05-24T19:30:08.989Z,101782.76
2018-05-24T19:32:36.632Z,101789.82
2018-05-24T19:35:04.344Z,101792.83
2018-05-24T19:37:31.980Z,101795.38
2018-05-24T19:39:59.618Z,101798.30
2018-05-24T19:42:27.884Z,101798.71
2018-05-24T19:44:55.584Z,101803.34
2018-05-24T19:47:23.531Z,101805.46
2018-05-24T19:49:51.676Z,101810.36
2018-05-24T19:52:19.307Z,101804.43
2018-05-24T19:54:47.160Z,101809.30
2018-05-24T19:57:14.801Z,101806.04
2018-05-24T19:59:42.429Z,101807.20
2018-05-24T20:02:10.076Z,101813.08
2018-05-24T20:04:37.759Z,101820.33
2018-05-24T20:07:05.440Z,101817.52
2018-05-24T20:09:34.750Z,101825.56
2018-05-24T20:12:02.477Z,101821.03
2018-05-24T20:14:30.393Z,101824.52
2018-05-24T20:16:58.100Z,101823.19
2018-05-24T20:19:26.120Z,101833.17
2018-05-24T20:21:53.889Z,101833.53
2018-05-24T20:24:26.998Z,101824.52
2018-05-24T20:27:03.936Z,101831.30
2018-05-24T20:29:37.935Z,101827.22
2018-05-24T20:32:11.793Z,101837.05
2018-05-24T20:34:45.270Z,101837.52
2018-05-24T20:37:20.547Z,101838.48
2018-05-24T20:39:55.376Z,101834.09
2018-05-24T20:42:29.338Z,101834.47
2018-05-24T20:45:03.042Z,101835.33
2018-05-24T20:47:35.871Z,101839.39
2018-05-24T20:50:08.131Z,101841.72
2018-05-24T20:52:41.784Z,101841.72
2018-05-24T20:55:15.354Z,101843.79
2018-05-24T20:57:49.472Z,101839.55
2018-05-24T21:00:21.135Z,101831.05
2018-05-24T21:02:55.465Z,101837.99
2018-05-24T21:08:07.262Z,101836.13
2018-05-24T21:10:40.097Z,101846.27
2018-05-24T21:13:13.113Z,101844.19
2018-05-24T21:15:46.689Z,101839.23
2018-05-24T21:18:19.310Z,101837.40
2018-05-24T21:20:52.568Z,101838.56
2018-05-24T21:23:29.314Z,101842.34
2018-05-24T21:26:02.996Z,101839.45
2018-05-24T21:28:36.381Z,101841.33
2018-05-24T21:31:11.648Z,101841.52
2018-05-24T21:33:44.959Z,101841.99
2018-05-24T21:36:19.428Z,101847.22
2018-05-24T21:38:51.520Z,101846.80
2018-05-24T21:41:22.790Z,101849.03
2018-05-24T21:43:55.462Z,101851.01
2018-05-24T21:46:29.437Z,101843.27
2018-05-24T21:49:02.694Z,101842.51
2018-05-24T21:51:36.408Z,101834.23
2018-05-24T21:54:08.632Z,101840.72
2018-05-24T21:56:41.996Z,101840.95
2018-05-24T21:59:15.477Z,101841.26
2018-05-24T22:01:49.038Z,101837.56
2018-05-24T22:04:22.699Z,101839.39
2018-05-24T22:06:56.666Z,101843.66
2018-05-24T22:09:29.921Z,101840.58
2018-05-24T22:11:57.797Z,101844.20
2018-05-24T22:14:25.463Z,101849.15
2018-05-24T22:16:53.190Z,101848.59
2018-05-24T22:19:20.939Z,101847.31
2018-05-24T22:21:48.636Z,101844.00
2018-05-24T22:24:16.326Z,101846.90
2018-05-24T22:26:44.027Z,101842.69
2018-05-24T22:29:11.702Z,101849.28
2018-05-24T22:31:39.361Z,101841.16
2018-05-24T22:34:07.050Z,101842.78
2018-05-24T22:36:34.758Z,101840.44
2018-05-24T22:39:02.457Z,101842.73
2018-05-24T22:41:30.181Z,101840.14
2018-05-24T22:43:57.863Z,101844.19
2018-05-24T22:46:25.513Z,101843.89
2018-05-24T22:48:53.199Z,101835.90
2018-05-24T22:51:20.863Z,101843.70
2018-05-24T22:53:48.559Z,101837.33
2018-05-24T22:56:16.292Z,101837.67
2018-05-24T22:58:43.967Z,101836.22
2018-05-24T23:01:11.665Z,101841.14
2018-05-24T23:03:39.338Z,101837.69
2018-05-24T23:06:06.986Z,101833.84
2018-05-24T23:08:34.678Z,101834.78
2018-05-24T23:11:02.372Z,101831.19
2018-05-24T23:13:30.054Z,101830.45
2018-05-24T23:15:57.732Z,101830.12
2018-05-24T23:18:25.415Z,101830.97
2018-05-24T23:20:53.169Z,101833.26
2018-05-24T23:23:20.854Z,101841.12
2018-05-24T23:25:48.511Z,101832.83
2018-05-24T23:28:16.231Z,101840.79
2018-05-24T23:30:43.906Z,101834.25
2018-05-24T23:33:11.566Z,101836.19
2018-05-24T23:35:39.265Z,101826.79
2018-05-24T23:38:07.166Z,101838.45
2018-05-24T23:40:34.857Z,101828.12
2018-05-24T23:43:02.535Z,101832.92
2018-05-24T23:45:30.245Z,101836.09
2018-05-24T23:47:57.933Z,101838.08
2018-05-24T23:50:25.625Z,101836.84
2018-05-24T23:52:53.315Z,101836.22
2018-05-24T23:55:21.013Z,101835.19
2018-05-24T23:57:48.689Z,101834.45
